createdAt,value
2022-08-16T00:01:45.076Z,25.75
2022-08-16T00:06:46.649Z,25.52
2022-08-16T00:11:48.169Z,25.79
2022-08-16T00:17:00.549Z,25.09
2022-08-16T00:22:13.634Z,25.60
2022-08-16T00:27:17.547Z,25.52
2022-08-16T00:32:19.190Z,25.52
2022-08-16T00:37:25.059Z,25.70
2022-08-16T00:42:46.395Z,25.56
2022-08-16T00:47:56.413Z,25.49
2022-08-16T00:52:58.125Z,25.54
2022-08-16T00:58:00.980Z,25.35
2022-08-16T01:03:03.494Z,25.53
2022-08-16T01:08:36.432Z,25.55
2022-08-16T01:13:29.120Z,25.70
2022-08-16T01:18:40.638Z,25.43
2022-08-16T01:24:53.418Z,25.60
2022-08-16T01:29:57.234Z,25.68
2022-08-16T01:35:00.745Z,25.55
2022-08-16T01:40:03.917Z,25.56
2022-08-16T01:45:09.049Z,25.48
2022-08-16T01:50:42.838Z,25.50
2022-08-16T01:55:35.403Z,25.70
2022-08-16T02:00:37.399Z,25.73
2022-08-16T02:05:40.775Z,25.67
2022-08-16T02:10:48.389Z,25.05
2022-08-16T02:15:50.583Z,25.51
2022-08-16T02:20:54.171Z,25.57
2022-08-16T02:25:55.692Z,25.64
2022-08-16T02:30:58.198Z,25.73
2022-08-16T02:36:00.121Z,25.74
2022-08-16T02:41:07.360Z,25.79
2022-08-16T02:46:11.472Z,25.71
2022-08-16T02:51:12.991Z,25.75
2022-08-16T02:56:15.981Z,25.74
2022-08-16T03:01:24.578Z,25.73
2022-08-16T03:06:38.911Z,25.70
2022-08-16T03:11:44.819Z,25.72
2022-08-16T03:16:59.238Z,25.77
2022-08-16T03:22:01.504Z,25.80
2022-08-16T03:27:03.193Z,25.75
2022-08-16T03:32:04.831Z,25.68
2022-08-16T03:37:06.719Z,25.59
2022-08-16T03:42:09.718Z,25.53
2022-08-16T03:47:11.737Z,25.38
2022-08-16T03:52:13.481Z,25.29
2022-08-16T03:57:15.718Z,25.36
2022-08-16T04:02:22.810Z,25.26
2022-08-16T04:07:33.750Z,25.00
2022-08-16T04:12:54.458Z,25.15
2022-08-16T04:17:57.846Z,25.27
2022-08-16T04:22:59.587Z,25.30
2022-08-16T04:28:54.593Z,25.37
2022-08-16T04:33:27.390Z,25.26
2022-08-16T04:38:30.452Z,25.23
2022-08-16T04:43:33.371Z,25.20
2022-08-16T04:48:34.993Z,25.19
2022-08-16T04:53:36.789Z,25.18
2022-08-16T04:58:46.018Z,25.27
2022-08-16T05:03:59.671Z,25.20
2022-08-16T05:09:02.642Z,25.33
2022-08-16T05:14:06.857Z,25.17
2022-08-16T05:19:11.791Z,25.33
2022-08-16T05:24:15.368Z,25.51
2022-08-16T05:29:57.357Z,25.30
2022-08-16T05:34:47.904Z,25.45
2022-08-16T05:39:55.428Z,25.52
2022-08-16T05:44:57.612Z,25.56
2022-08-16T05:49:59.204Z,25.71
2022-08-16T05:55:01.714Z,25.90
2022-08-16T06:00:09.093Z,26.00
2022-08-16T06:05:11.450Z,26.06
2022-08-16T06:10:31.922Z,26.16
2022-08-16T06:15:35.263Z,26.34
2022-08-16T06:20:38.069Z,26.58
2022-08-16T06:25:57.513Z,26.67
2022-08-16T06:31:01.358Z,26.83
2022-08-16T06:36:03.761Z,26.89
2022-08-16T06:41:05.790Z,26.85
2022-08-16T06:46:09.696Z,26.86
2022-08-16T06:51:11.502Z,26.89
2022-08-16T06:56:23.053Z,26.89
2022-08-16T07:01:43.231Z,26.84
2022-08-16T07:06:46.735Z,26.85
2022-08-16T07:11:52.188Z,26.78
2022-08-16T07:16:57.950Z,26.76
2022-08-16T07:22:02.338Z,26.60
2022-08-16T07:27:08.634Z,26.77
2022-08-16T07:32:14.035Z,26.77
2022-08-16T07:37:15.574Z,26.84
2022-08-16T07:42:25.907Z,26.98
2022-08-16T07:47:31.636Z,27.11
2022-08-16T07:52:34.186Z,27.17
2022-08-16T07:57:44.523Z,27.47
2022-08-16T08:02:57.230Z,27.61
2022-08-16T08:07:58.768Z,27.65
2022-08-16T08:13:01.823Z,27.57
2022-08-16T08:18:30.602Z,27.84
2022-08-16T08:23:27.608Z,27.95
2022-08-16T08:28:31.917Z,28.04
2022-08-16T08:33:34.033Z,28.07
2022-08-16T08:38:43.715Z,27.99
2022-08-16T08:43:47.314Z,28.18
2022-08-16T08:49:00.108Z,28.26
2022-08-16T08:54:09.262Z,28.32
2022-08-16T08:59:13.530Z,28.25
2022-08-16T09:04:21.469Z,28.43
2022-08-16T09:09:23.228Z,28.45
2022-08-16T09:14:25.094Z,28.60
2022-08-16T09:19:32.966Z,28.69
2022-08-16T09:24:52.759Z,28.81
2022-08-16T09:30:00.054Z,28.88
2022-08-16T09:35:03.019Z,29.02
2022-08-16T09:40:32.801Z,29.17
2022-08-16T09:45:29.059Z,29.29
2022-08-16T09:50:37.246Z,29.30
2022-08-16T09:55:44.551Z,29.29
2022-08-16T10:00:46.504Z,29.43
2022-08-16T10:05:48.466Z,29.51
2022-08-16T10:11:09.536Z,29.43
2022-08-16T10:21:16.577Z,29.48
2022-08-16T10:27:03.784Z,29.56
2022-08-16T10:31:45.291Z,29.60
2022-08-16T10:36:48.219Z,29.75
2022-08-16T10:41:55.898Z,29.88
2022-08-16T10:46:57.448Z,30.05
2022-08-16T10:52:01.317Z,30.01
2022-08-16T10:57:05.239Z,30.02
2022-08-16T11:02:57.793Z,30.31
2022-08-16T11:07:43.335Z,30.43
2022-08-16T11:12:46.704Z,30.51
2022-08-16T11:18:48.297Z,30.73
2022-08-16T11:23:11.972Z,30.99
2022-08-16T11:29:12.412Z,31.02
2022-08-16T11:33:55.186Z,31.06
2022-08-16T11:39:00.212Z,31.25
2022-08-16T11:44:02.847Z,31.15
2022-08-16T11:49:08.635Z,30.90
2022-08-16T11:54:20.526Z,30.78
2022-08-16T11:59:24.403Z,31.46
2022-08-16T12:04:30.387Z,31.57
2022-08-16T12:09:31.943Z,31.81
2022-08-16T12:14:35.311Z,32.19
2022-08-16T12:19:39.151Z,32.32
2022-08-16T12:24:40.701Z,31.66
2022-08-16T12:29:44.799Z,32.03
2022-08-16T12:34:50.516Z,32.26
2022-08-16T12:39:56.102Z,32.24
2022-08-16T12:44:57.782Z,32.57
2022-08-16T12:49:59.965Z,32.83
2022-08-16T12:55:01.946Z,32.80
2022-08-16T13:00:12.719Z,32.48
2022-08-16T13:05:28.723Z,32.19
2022-08-16T13:10:38.030Z,32.04
2022-08-16T13:15:51.705Z,32.62
2022-08-16T13:21:01.281Z,31.96
2022-08-16T13:26:05.258Z,31.69
2022-08-16T13:31:09.417Z,31.35
2022-08-16T13:36:21.345Z,31.85
2022-08-16T13:41:33.644Z,31.98
2022-08-16T13:46:35.422Z,32.65
2022-08-16T13:51:39.196Z,32.42
2022-08-16T13:56:41.371Z,31.94
2022-08-16T14:01:43.083Z,32.24
2022-08-16T14:06:46.712Z,31.78
2022-08-16T14:11:49.477Z,31.36
2022-08-16T14:16:55.081Z,31.80
2022-08-16T14:22:14.842Z,31.70
2022-08-16T14:27:21.355Z,31.78
2022-08-16T14:32:33.069Z,31.20
2022-08-16T14:37:35.810Z,30.96
2022-08-16T14:42:37.409Z,30.61
2022-08-16T14:47:39.019Z,30.38
2022-08-16T14:52:55.173Z,29.74
2022-08-16T14:57:58.341Z,30.24
2022-08-16T15:03:00.753Z,27.38
2022-08-16T15:08:03.998Z,29.33
2022-08-16T15:13:06.634Z,29.75
2022-08-16T15:18:11.815Z,29.65
2022-08-16T15:23:13.909Z,29.63
2022-08-16T15:28:31.121Z,29.60
2022-08-16T15:33:35.155Z,29.38
2022-08-16T15:39:02.499Z,29.22
2022-08-16T15:44:03.562Z,29.28
2022-08-16T15:49:13.652Z,28.82
2022-08-16T15:54:20.913Z,28.94
2022-08-16T15:59:48.644Z,28.90
2022-08-16T16:04:51.727Z,28.59
2022-08-16T16:09:55.477Z,28.30
2022-08-16T16:15:00.525Z,28.13
2022-08-16T16:20:02.828Z,27.89
2022-08-16T16:25:04.660Z,27.54
2022-08-16T16:30:33.590Z,27.33
2022-08-16T16:35:28.528Z,27.33
2022-08-16T16:40:35.357Z,27.04
2022-08-16T16:45:37.268Z,26.91
2022-08-16T16:50:39.389Z,26.71
2022-08-16T16:55:40.992Z,26.42
2022-08-16T17:00:42.733Z,26.28
2022-08-16T17:06:00.206Z,26.72
2022-08-16T17:11:04.883Z,26.65
2022-08-16T17:16:18.990Z,26.46
2022-08-16T17:21:21.636Z,26.31
2022-08-16T17:26:30.264Z,26.00
2022-08-16T17:31:40.614Z,26.29
2022-08-16T17:36:45.281Z,26.53
2022-08-16T17:41:56.882Z,26.33
2022-08-16T17:46:58.399Z,26.29
2022-08-16T17:52:00.020Z,25.96
2022-08-16T17:57:01.533Z,25.87
2022-08-16T18:02:42.051Z,25.87
2022-08-16T18:07:24.883Z,25.72
2022-08-16T18:12:50.704Z,25.34
2022-08-16T18:17:53.114Z,25.51
2022-08-16T18:22:54.667Z,25.65
2022-08-16T18:27:56.245Z,25.52
2022-08-16T18:32:57.800Z,25.49
2022-08-16T18:37:59.378Z,25.24
2022-08-16T18:43:03.263Z,25.64
2022-08-16T18:48:05.604Z,25.42
2022-08-16T18:53:08.155Z,25.31
2022-08-16T18:58:09.778Z,25.14
2022-08-16T19:03:25.660Z,25.60
2022-08-16T19:08:27.241Z,25.46
2022-08-16T19:13:29.066Z,25.25
2022-08-16T19:18:36.663Z,25.12
2022-08-16T19:23:39.043Z,25.22
2022-08-16T19:28:58.159Z,24.96
2022-08-16T19:34:01.593Z,24.95
2022-08-16T19:39:06.099Z,25.08
2022-08-16T19:44:07.735Z,25.03
2022-08-16T19:49:09.264Z,25.30
2022-08-16T19:54:10.879Z,25.01
2022-08-16T19:59:20.082Z,25.04
2022-08-16T20:04:23.120Z,25.26
2022-08-16T20:09:24.583Z,25.44
2022-08-16T20:14:26.702Z,25.33
2022-08-16T20:19:29.149Z,25.43
2022-08-16T20:24:35.266Z,25.24
2022-08-16T20:29:38.416Z,24.99
2022-08-16T20:34:41.462Z,25.05
2022-08-16T20:39:47.069Z,24.88
2022-08-16T20:44:48.630Z,24.79
2022-08-16T20:49:50.680Z,24.90
2022-08-16T20:54:52.436Z,24.74
2022-08-16T20:59:53.823Z,24.91
2022-08-16T21:04:55.736Z,24.79
2022-08-16T21:09:57.317Z,24.47
2022-08-16T21:15:04.076Z,25.11
2022-08-16T21:20:06.071Z,25.37
2022-08-16T21:25:10.702Z,25.50
2022-08-16T21:30:12.995Z,25.43
2022-08-16T21:35:18.233Z,25.14
2022-08-16T21:40:19.790Z,25.39
2022-08-16T21:45:21.315Z,25.26
2022-08-16T21:50:22.864Z,25.42
2022-08-16T21:55:26.360Z,25.42
2022-08-16T22:00:28.143Z,25.49
2022-08-16T22:05:30.055Z,25.55
2022-08-16T22:11:06.632Z,25.52
2022-08-16T22:15:54.040Z,25.36
2022-08-16T22:20:55.665Z,25.51
2022-08-16T22:25:57.450Z,25.46
2022-08-16T22:30:58.822Z,25.61
2022-08-16T22:36:00.581Z,25.67
2022-08-16T22:41:05.132Z,25.69
2022-08-16T22:46:06.859Z,25.66
2022-08-16T22:51:08.249Z,25.59
2022-08-16T22:56:09.789Z,25.56
2022-08-16T23:01:12.128Z,25.53
2022-08-16T23:06:13.894Z,25.65
2022-08-16T23:11:20.958Z,25.66
2022-08-16T23:16:33.251Z,25.66
2022-08-16T23:21:36.961Z,25.21
2022-08-16T23:26:47.670Z,25.23
2022-08-16T23:31:50.164Z,25.20
2022-08-16T23:36:55.347Z,25.28
2022-08-16T23:41:56.972Z,25.36
2022-08-16T23:46:58.961Z,25.31
2022-08-16T23:52:07.630Z,25.21
2022-08-16T23:57:09.159Z,25.33
